KLNA

Palm Beach County Park Airport

West Palm Beach, Florida, USA
METAR KLNA 171415Z AUTO 30008KT 10SM CLR 16/11 A3016 RMK AO2 T01570111
Observed Flight Rules
Dec-17 @ 14:15 UTC (14 minutes ago) Visual Flight Rules
Wind Visibility Clouds
300° at 8 knots 10 miles
  • Clear skies
Temperatures Readings
Current 16°C / 61°F
Dewpoint 11°C / 52°F
Humidity 72%
Altimeter 30.16" Hg
Pressure 1021 hPa
Elevation 11
METAR KLNA 171415Z AUTO 30008KT 10SM CLR 16/11 A3016 RMK AO2 T01570111
Observed Flight Rules
Dec-17 @ 14:15 UTC
(14 minutes ago)
VFR
Wind Visibility
300° at 8 knots 10 miles
Clouds
  • Clear skies
Temperature Dewpoint
16°C / 61°F 11°C / 52°F
Humidity Altimeter Pressure
72% 30.16" Hg 1021 hPa